sensor_id;sensor_type;location;lat;lon;timestamp;P1;durP1;ratioP1;P2;durP2;ratioP2
14599;SDS011;7386;45.586;12.854;2022-11-04T00:00:47;73.28;;;38.65;;
14599;SDS011;7386;45.586;12.854;2022-11-04T00:03:16;72.72;;;38.10;;
14599;SDS011;7386;45.586;12.854;2022-11-04T00:05:45;62.10;;;34.17;;
14599;SDS011;7386;45.586;12.854;2022-11-04T00:08:13;63.22;;;34.10;;
14599;SDS011;7386;45.586;12.854;2022-11-04T00:10:52;52.05;;;28.25;;
14599;SDS011;7386;45.586;12.854;2022-11-04T00:13:38;48.58;;;26.65;;
14599;SDS011;7386;45.586;12.854;2022-11-04T00:16:07;44.47;;;23.92;;
14599;SDS011;7386;45.586;12.854;2022-11-04T00:18:55;39.45;;;21.40;;
14599;SDS011;7386;45.586;12.854;2022-11-04T00:21:23;34.25;;;20.35;;
14599;SDS011;7386;45.586;12.854;2022-11-04T00:24:10;34.03;;;18.48;;
14599;SDS011;7386;45.586;12.854;2022-11-04T00:26:56;24.45;;;14.55;;
14599;SDS011;7386;45.586;12.854;2022-11-04T00:29:42;27.88;;;14.70;;
14599;SDS011;7386;45.586;12.854;2022-11-04T00:32:10;27.15;;;15.02;;
14599;SDS011;7386;45.586;12.854;2022-11-04T00:34:57;34.13;;;16.67;;
14599;SDS011;7386;45.586;12.854;2022-11-04T00:37:26;31.13;;;17.40;;
14599;SDS011;7386;45.586;12.854;2022-11-04T00:39:54;32.38;;;16.90;;
14599;SDS011;7386;45.586;12.854;2022-11-04T00:42:22;32.83;;;18.45;;
14599;SDS011;7386;45.586;12.854;2022-11-04T00:44:50;32.13;;;16.67;;
14599;SDS011;7386;45.586;12.854;2022-11-04T00:47:18;35.63;;;17.05;;
14599;SDS011;7386;45.586;12.854;2022-11-04T00:49:46;32.42;;;16.67;;
14599;SDS011;7386;45.586;12.854;2022-11-04T00:52:16;35.67;;;16.73;;
14599;SDS011;7386;45.586;12.854;2022-11-04T00:54:44;28.10;;;16.42;;
14599;SDS011;7386;45.586;12.854;2022-11-04T00:57:13;33.08;;;16.85;;
14599;SDS011;7386;45.586;12.854;2022-11-04T00:59:41;31.13;;;16.80;;
14599;SDS011;7386;45.586;12.854;2022-11-04T01:02:11;31.90;;;17.40;;
14599;SDS011;7386;45.586;12.854;2022-11-04T01:04:39;38.30;;;16.75;;
14599;SDS011;7386;45.586;12.854;2022-11-04T01:07:07;40.15;;;17.45;;
14599;SDS011;7386;45.586;12.854;2022-11-04T01:09:37;30.80;;;16.27;;
14599;SDS011;7386;45.586;12.854;2022-11-04T01:12:05;35.88;;;15.85;;
14599;SDS011;7386;45.586;12.854;2022-11-04T01:14:34;30.48;;;15.38;;
14599;SDS011;7386;45.586;12.854;2022-11-04T01:17:02;34.00;;;15.25;;
14599;SDS011;7386;45.586;12.854;2022-11-04T01:19:30;29.33;;;15.98;;
14599;SDS011;7386;45.586;12.854;2022-11-04T01:21:59;28.75;;;14.90;;
14599;SDS011;7386;45.586;12.854;2022-11-04T01:24:27;27.65;;;13.57;;
14599;SDS011;7386;45.586;12.854;2022-11-04T01:26:57;38.42;;;16.02;;
14599;SDS011;7386;45.586;12.854;2022-11-04T01:29:25;30.50;;;13.98;;
14599;SDS011;7386;45.586;12.854;2022-11-04T01:31:54;30.35;;;13.55;;
14599;SDS011;7386;45.586;12.854;2022-11-04T01:34:22;28.25;;;13.38;;
14599;SDS011;7386;45.586;12.854;2022-11-04T01:36:50;37.00;;;14.43;;
14599;SDS011;7386;45.586;12.854;2022-11-04T01:39:18;33.20;;;14.77;;
14599;SDS011;7386;45.586;12.854;2022-11-04T01:41:46;31.27;;;14.35;;
14599;SDS011;7386;45.586;12.854;2022-11-04T01:47:26;34.70;;;14.48;;
14599;SDS011;7386;45.586;12.854;2022-11-04T01:50:00;31.30;;;13.48;;
14599;SDS011;7386;45.586;12.854;2022-11-04T01:52:32;30.02;;;13.23;;
14599;SDS011;7386;45.586;12.854;2022-11-04T01:55:05;28.70;;;13.10;;
14599;SDS011;7386;45.586;12.854;2022-11-04T01:57:40;28.88;;;14.02;;
14599;SDS011;7386;45.586;12.854;2022-11-04T02:00:14;36.63;;;14.93;;
14599;SDS011;7386;45.586;12.854;2022-11-04T02:02:45;38.90;;;14.52;;
14599;SDS011;7386;45.586;12.854;2022-11-04T02:05:20;41.97;;;15.00;;
14599;SDS011;7386;45.586;12.854;2022-11-04T02:07:50;37.72;;;14.15;;
14599;SDS011;7386;45.586;12.854;2022-11-04T02:10:24;33.92;;;13.73;;
14599;SDS011;7386;45.586;12.854;2022-11-04T02:12:54;36.90;;;15.00;;
14599;SDS011;7386;45.586;12.854;2022-11-04T02:15:26;37.00;;;15.57;;
14599;SDS011;7386;45.586;12.854;2022-11-04T02:18:08;36.65;;;14.55;;
14599;SDS011;7386;45.586;12.854;2022-11-04T02:20:50;42.72;;;15.27;;
14599;SDS011;7386;45.586;12.854;2022-11-04T02:23:49;57.85;;;15.13;;
14599;SDS011;7386;45.586;12.854;2022-11-04T02:26:51;39.33;;;14.32;;
14599;SDS011;7386;45.586;12.854;2022-11-04T02:29:51;45.53;;;14.35;;
14599;SDS011;7386;45.586;12.854;2022-11-04T02:32:36;34.28;;;14.02;;
14599;SDS011;7386;45.586;12.854;2022-11-04T02:35:10;39.40;;;15.57;;
14599;SDS011;7386;45.586;12.854;2022-11-04T02:37:46;42.40;;;15.15;;
14599;SDS011;7386;45.586;12.854;2022-11-04T02:40:22;43.83;;;15.48;;
14599;SDS011;7386;45.586;12.854;2022-11-04T02:42:58;59.38;;;15.68;;
14599;SDS011;7386;45.586;12.854;2022-11-04T02:45:34;39.67;;;15.75;;
14599;SDS011;7386;45.586;12.854;2022-11-04T02:48:08;36.85;;;14.00;;
14599;SDS011;7386;45.586;12.854;2022-11-04T02:50:43;39.70;;;14.05;;
14599;SDS011;7386;45.586;12.854;2022-11-04T02:53:17;46.58;;;13.45;;
14599;SDS011;7386;45.586;12.854;2022-11-04T02:55:49;32.08;;;12.18;;
14599;SDS011;7386;45.586;12.854;2022-11-04T02:58:22;42.88;;;12.18;;
14599;SDS011;7386;45.586;12.854;2022-11-04T03:00:56;39.00;;;12.35;;
14599;SDS011;7386;45.586;12.854;2022-11-04T03:03:28;29.92;;;11.18;;
14599;SDS011;7386;45.586;12.854;2022-11-04T03:06:00;35.33;;;12.30;;
14599;SDS011;7386;45.586;12.854;2022-11-04T03:08:32;48.80;;;12.57;;
14599;SDS011;7386;45.586;12.854;2022-11-04T03:11:03;47.75;;;11.52;;
14599;SDS011;7386;45.586;12.854;2022-11-04T03:13:38;45.92;;;12.32;;
14599;SDS011;7386;45.586;12.854;2022-11-04T03:16:13;47.90;;;11.60;;
14599;SDS011;7386;45.586;12.854;2022-11-04T03:18:46;35.63;;;9.00;;
14599;SDS011;7386;45.586;12.854;2022-11-04T03:21:23;25.42;;;8.52;;
14599;SDS011;7386;45.586;12.854;2022-11-04T03:23:53;33.40;;;9.57;;
14599;SDS011;7386;45.586;12.854;2022-11-04T03:26:22;26.75;;;9.52;;
14599;SDS011;7386;45.586;12.854;2022-11-04T03:28:57;32.38;;;9.95;;
14599;SDS011;7386;45.586;12.854;2022-11-04T03:31:39;43.85;;;10.80;;
14599;SDS011;7386;45.586;12.854;2022-11-04T03:34:11;37.22;;;11.75;;
14599;SDS011;7386;45.586;12.854;2022-11-04T03:36:39;30.30;;;10.77;;
14599;SDS011;7386;45.586;12.854;2022-11-04T03:39:08;34.33;;;10.25;;
14599;SDS011;7386;45.586;12.854;2022-11-04T03:41:37;34.20;;;11.25;;
14599;SDS011;7386;45.586;12.854;2022-11-04T03:44:09;40.60;;;11.80;;
14599;SDS011;7386;45.586;12.854;2022-11-04T03:46:39;42.15;;;12.48;;
14599;SDS011;7386;45.586;12.854;2022-11-04T03:49:07;42.17;;;12.75;;
14599;SDS011;7386;45.586;12.854;2022-11-04T03:51:38;42.45;;;13.45;;
14599;SDS011;7386;45.586;12.854;2022-11-04T03:54:06;40.35;;;13.38;;
14599;SDS011;7386;45.586;12.854;2022-11-04T03:56:39;50.80;;;14.23;;
14599;SDS011;7386;45.586;12.854;2022-11-04T03:59:39;38.15;;;12.48;;
14599;SDS011;7386;45.586;12.854;2022-11-04T04:02:21;50.35;;;15.25;;
14599;SDS011;7386;45.586;12.854;2022-11-04T04:05:01;47.65;;;13.77;;
14599;SDS011;7386;45.586;12.854;2022-11-04T04:07:34;52.78;;;12.60;;
14599;SDS011;7386;45.586;12.854;2022-11-04T04:10:07;47.72;;;12.98;;
14599;SDS011;7386;45.586;12.854;2022-11-04T04:12:59;40.30;;;11.77;;
14599;SDS011;7386;45.586;12.854;2022-11-04T04:15:32;53.63;;;12.93;;
14599;SDS011;7386;45.586;12.854;2022-11-04T04:18:11;48.60;;;11.85;;
14599;SDS011;7386;45.586;12.854;2022-11-04T04:20:41;45.50;;;11.23;;
14599;SDS011;7386;45.586;12.854;2022-11-04T04:23:14;53.58;;;11.55;;
14599;SDS011;7386;45.586;12.854;2022-11-04T04:26:03;37.72;;;10.43;;
14599;SDS011;7386;45.586;12.854;2022-11-04T04:28:50;48.95;;;11.90;;
14599;SDS011;7386;45.586;12.854;2022-11-04T04:31:21;42.35;;;12.55;;
14599;SDS011;7386;45.586;12.854;2022-11-04T04:34:10;42.25;;;13.48;;
14599;SDS011;7386;45.586;12.854;2022-11-04T04:36:40;52.03;;;14.27;;
14599;SDS011;7386;45.586;12.854;2022-11-04T04:39:13;48.25;;;13.93;;
14599;SDS011;7386;45.586;12.854;2022-11-04T04:42:02;35.22;;;12.75;;
14599;SDS011;7386;45.586;12.854;2022-11-04T04:44:48;44.00;;;13.30;;
14599;SDS011;7386;45.586;12.854;2022-11-04T04:47:26;40.40;;;14.20;;
14599;SDS011;7386;45.586;12.854;2022-11-04T04:49:59;48.28;;;14.63;;
14599;SDS011;7386;45.586;12.854;2022-11-04T04:52:30;39.63;;;13.15;;
14599;SDS011;7386;45.586;12.854;2022-11-04T04:55:00;38.67;;;13.38;;
14599;SDS011;7386;45.586;12.854;2022-11-04T04:57:28;41.40;;;14.90;;
14599;SDS011;7386;45.586;12.854;2022-11-04T04:59:56;39.00;;;13.70;;
14599;SDS011;7386;45.586;12.854;2022-11-04T05:02:24;44.33;;;13.88;;
14599;SDS011;7386;45.586;12.854;2022-11-04T05:04:53;45.38;;;12.98;;
14599;SDS011;7386;45.586;12.854;2022-11-04T05:07:23;39.20;;;13.55;;
14599;SDS011;7386;45.586;12.854;2022-11-04T05:09:51;50.35;;;14.35;;
14599;SDS011;7386;45.586;12.854;2022-11-04T05:12:19;41.55;;;12.63;;
14599;SDS011;7386;45.586;12.854;2022-11-04T05:14:47;37.05;;;12.55;;
14599;SDS011;7386;45.586;12.854;2022-11-04T05:17:16;43.13;;;12.93;;
14599;SDS011;7386;45.586;12.854;2022-11-04T05:19:44;47.25;;;13.07;;
14599;SDS011;7386;45.586;12.854;2022-11-04T05:22:12;40.65;;;12.32;;
14599;SDS011;7386;45.586;12.854;2022-11-04T05:24:42;45.17;;;13.73;;
14599;SDS011;7386;45.586;12.854;2022-11-04T05:27:10;50.63;;;13.45;;
14599;SDS011;7386;45.586;12.854;2022-11-04T05:29:38;40.13;;;12.15;;
14599;SDS011;7386;45.586;12.854;2022-11-04T05:32:06;42.72;;;12.85;;
14599;SDS011;7386;45.586;12.854;2022-11-04T05:34:34;48.25;;;12.82;;
14599;SDS011;7386;45.586;12.854;2022-11-04T05:37:03;43.13;;;14.05;;
14599;SDS011;7386;45.586;12.854;2022-11-04T05:39:31;46.47;;;13.77;;
14599;SDS011;7386;45.586;12.854;2022-11-04T05:42:00;58.03;;;14.60;;
14599;SDS011;7386;45.586;12.854;2022-11-04T05:44:28;44.08;;;13.43;;
14599;SDS011;7386;45.586;12.854;2022-11-04T05:46:57;51.25;;;14.70;;
14599;SDS011;7386;45.586;12.854;2022-11-04T05:49:25;46.20;;;14.40;;
14599;SDS011;7386;45.586;12.854;2022-11-04T05:51:53;47.58;;;15.20;;
14599;SDS011;7386;45.586;12.854;2022-11-04T05:54:21;47.58;;;13.10;;
14599;SDS011;7386;45.586;12.854;2022-11-04T05:56:50;49.65;;;15.18;;
14599;SDS011;7386;45.586;12.854;2022-11-04T05:59:19;40.25;;;13.23;;
14599;SDS011;7386;45.586;12.854;2022-11-04T06:01:48;54.92;;;15.00;;
14599;SDS011;7386;45.586;12.854;2022-11-04T06:04:17;51.97;;;14.68;;
14599;SDS011;7386;45.586;12.854;2022-11-04T06:06:45;50.50;;;13.90;;
14599;SDS011;7386;45.586;12.854;2022-11-04T06:09:13;39.60;;;13.20;;
14599;SDS011;7386;45.586;12.854;2022-11-04T06:11:42;42.83;;;14.90;;
14599;SDS011;7386;45.586;12.854;2022-11-04T06:14:10;47.10;;;14.55;;
14599;SDS011;7386;45.586;12.854;2022-11-04T06:16:45;48.10;;;14.15;;
14599;SDS011;7386;45.586;12.854;2022-11-04T06:19:13;52.83;;;14.43;;
14599;SDS011;7386;45.586;12.854;2022-11-04T06:21:42;51.58;;;13.32;;
14599;SDS011;7386;45.586;12.854;2022-11-04T06:24:10;50.80;;;14.35;;
14599;SDS011;7386;45.586;12.854;2022-11-04T06:26:38;47.50;;;13.35;;
14599;SDS011;7386;45.586;12.854;2022-11-04T06:29:06;45.20;;;13.35;;
14599;SDS011;7386;45.586;12.854;2022-11-04T06:31:35;50.80;;;13.18;;
14599;SDS011;7386;45.586;12.854;2022-11-04T06:34:04;54.38;;;13.52;;
14599;SDS011;7386;45.586;12.854;2022-11-04T06:36:33;44.20;;;12.23;;
14599;SDS011;7386;45.586;12.854;2022-11-04T06:39:01;53.33;;;13.68;;
14599;SDS011;7386;45.586;12.854;2022-11-04T06:41:30;62.42;;;14.05;;
14599;SDS011;7386;45.586;12.854;2022-11-04T06:43:59;51.40;;;14.38;;
14599;SDS011;7386;45.586;12.854;2022-11-04T06:46:28;61.15;;;13.70;;
14599;SDS011;7386;45.586;12.854;2022-11-04T06:48:58;42.45;;;13.63;;
14599;SDS011;7386;45.586;12.854;2022-11-04T06:51:28;37.45;;;12.80;;
14599;SDS011;7386;45.586;12.854;2022-11-04T06:53:56;36.08;;;12.30;;
14599;SDS011;7386;45.586;12.854;2022-11-04T06:56:24;47.85;;;13.10;;
14599;SDS011;7386;45.586;12.854;2022-11-04T06:58:53;49.58;;;13.90;;
14599;SDS011;7386;45.586;12.854;2022-11-04T07:01:22;37.90;;;12.27;;
14599;SDS011;7386;45.586;12.854;2022-11-04T07:03:53;40.45;;;12.77;;
14599;SDS011;7386;45.586;12.854;2022-11-04T07:06:22;45.70;;;13.07;;
14599;SDS011;7386;45.586;12.854;2022-11-04T07:08:52;52.40;;;13.63;;
14599;SDS011;7386;45.586;12.854;2022-11-04T07:11:22;41.05;;;12.85;;
14599;SDS011;7386;45.586;12.854;2022-11-04T07:13:51;48.55;;;13.52;;
14599;SDS011;7386;45.586;12.854;2022-11-04T07:16:19;51.15;;;12.40;;
14599;SDS011;7386;45.586;12.854;2022-11-04T07:18:47;45.50;;;12.07;;
14599;SDS011;7386;45.586;12.854;2022-11-04T07:21:17;45.20;;;12.48;;
14599;SDS011;7386;45.586;12.854;2022-11-04T07:23:45;37.97;;;11.07;;
14599;SDS011;7386;45.586;12.854;2022-11-04T07:26:14;45.78;;;12.95;;
14599;SDS011;7386;45.586;12.854;2022-11-04T07:28:43;50.65;;;13.50;;
14599;SDS011;7386;45.586;12.854;2022-11-04T07:31:11;52.60;;;13.65;;
14599;SDS011;7386;45.586;12.854;2022-11-04T07:33:40;45.38;;;13.10;;
14599;SDS011;7386;45.586;12.854;2022-11-04T07:36:09;48.22;;;12.52;;
14599;SDS011;7386;45.586;12.854;2022-11-04T07:38:39;49.60;;;12.52;;
14599;SDS011;7386;45.586;12.854;2022-11-04T07:41:07;54.50;;;12.18;;
14599;SDS011;7386;45.586;12.854;2022-11-04T07:43:37;44.40;;;11.93;;
14599;SDS011;7386;45.586;12.854;2022-11-04T07:46:06;48.17;;;12.75;;
14599;SDS011;7386;45.586;12.854;2022-11-04T07:48:37;52.72;;;12.23;;
14599;SDS011;7386;45.586;12.854;2022-11-04T07:51:06;46.22;;;11.95;;
14599;SDS011;7386;45.586;12.854;2022-11-04T07:53:36;52.50;;;13.57;;
14599;SDS011;7386;45.586;12.854;2022-11-04T07:56:04;42.42;;;12.00;;
14599;SDS011;7386;45.586;12.854;2022-11-04T07:58:34;61.00;;;12.57;;
14599;SDS011;7386;45.586;12.854;2022-11-04T08:01:04;54.40;;;13.48;;
14599;SDS011;7386;45.586;12.854;2022-11-04T08:03:34;51.38;;;12.32;;
14599;SDS011;7386;45.586;12.854;2022-11-04T08:06:03;39.67;;;11.90;;
14599;SDS011;7386;45.586;12.854;2022-11-04T08:08:33;36.83;;;10.50;;
14599;SDS011;7386;45.586;12.854;2022-11-04T08:11:02;42.40;;;11.73;;
14599;SDS011;7386;45.586;12.854;2022-11-04T08:13:32;52.35;;;12.70;;
14599;SDS011;7386;45.586;12.854;2022-11-04T08:16:02;36.83;;;11.35;;
14599;SDS011;7386;45.586;12.854;2022-11-04T08:18:32;54.38;;;11.77;;
14599;SDS011;7386;45.586;12.854;2022-11-04T08:21:01;60.15;;;13.85;;
14599;SDS011;7386;45.586;12.854;2022-11-04T08:23:30;45.88;;;12.65;;
14599;SDS011;7386;45.586;12.854;2022-11-04T08:25:59;56.35;;;12.68;;
14599;SDS011;7386;45.586;12.854;2022-11-04T08:28:28;44.95;;;12.80;;
14599;SDS011;7386;45.586;12.854;2022-11-04T08:30:57;47.88;;;11.95;;
14599;SDS011;7386;45.586;12.854;2022-11-04T08:33:29;50.97;;;12.70;;
14599;SDS011;7386;45.586;12.854;2022-11-04T08:35:59;39.10;;;10.82;;
14599;SDS011;7386;45.586;12.854;2022-11-04T08:38:32;54.67;;;12.57;;
14599;SDS011;7386;45.586;12.854;2022-11-04T08:41:01;46.15;;;12.40;;
14599;SDS011;7386;45.586;12.854;2022-11-04T08:43:30;48.15;;;11.85;;
14599;SDS011;7386;45.586;12.854;2022-11-04T08:46:00;50.80;;;12.60;;
14599;SDS011;7386;45.586;12.854;2022-11-04T08:48:32;45.75;;;11.55;;
14599;SDS011;7386;45.586;12.854;2022-11-04T08:51:01;65.22;;;12.63;;
14599;SDS011;7386;45.586;12.854;2022-11-04T08:53:31;47.25;;;12.43;;
14599;SDS011;7386;45.586;12.854;2022-11-04T08:55:59;54.42;;;12.05;;
14599;SDS011;7386;45.586;12.854;2022-11-04T08:58:36;54.28;;;13.30;;
14599;SDS011;7386;45.586;12.854;2022-11-04T09:01:04;50.53;;;12.25;;
14599;SDS011;7386;45.586;12.854;2022-11-04T09:03:34;56.58;;;12.27;;
14599;SDS011;7386;45.586;12.854;2022-11-04T09:06:04;33.33;;;10.27;;
14599;SDS011;7386;45.586;12.854;2022-11-04T09:08:33;63.92;;;16.25;;
14599;SDS011;7386;45.586;12.854;2022-11-04T09:11:04;57.92;;;17.35;;
14599;SDS011;7386;45.586;12.854;2022-11-04T09:13:33;52.28;;;18.85;;
14599;SDS011;7386;45.586;12.854;2022-11-04T09:16:05;50.15;;;19.77;;
14599;SDS011;7386;45.586;12.854;2022-11-04T09:18:36;38.75;;;16.77;;
14599;SDS011;7386;45.586;12.854;2022-11-04T09:21:05;35.22;;;17.20;;
14599;SDS011;7386;45.586;12.854;2022-11-04T09:23:35;29.75;;;16.17;;
14599;SDS011;7386;45.586;12.854;2022-11-04T09:26:04;24.27;;;15.55;;
14599;SDS011;7386;45.586;12.854;2022-11-04T09:28:34;24.30;;;14.80;;
14599;SDS011;7386;45.586;12.854;2022-11-04T09:31:06;24.20;;;15.85;;
14599;SDS011;7386;45.586;12.854;2022-11-04T09:33:36;20.67;;;13.95;;
14599;SDS011;7386;45.586;12.854;2022-11-04T09:36:05;19.98;;;12.32;;
14599;SDS011;7386;45.586;12.854;2022-11-04T09:38:34;16.05;;;11.65;;
14599;SDS011;7386;45.586;12.854;2022-11-04T09:41:07;18.55;;;10.50;;
14599;SDS011;7386;45.586;12.854;2022-11-04T09:43:51;14.43;;;9.13;;
14599;SDS011;7386;45.586;12.854;2022-11-04T09:46:23;13.60;;;7.50;;
14599;SDS011;7386;45.586;12.854;2022-11-04T09:48:54;11.25;;;7.07;;
14599;SDS011;7386;45.586;12.854;2022-11-04T09:51:24;11.55;;;6.78;;
14599;SDS011;7386;45.586;12.854;2022-11-04T09:54:15;20.35;;;6.85;;
14599;SDS011;7386;45.586;12.854;2022-11-04T09:56:48;19.15;;;7.43;;
14599;SDS011;7386;45.586;12.854;2022-11-04T09:59:23;17.42;;;6.72;;
14599;SDS011;7386;45.586;12.854;2022-11-04T10:01:56;28.80;;;8.35;;
14599;SDS011;7386;45.586;12.854;2022-11-04T10:04:35;26.00;;;7.07;;
14599;SDS011;7386;45.586;12.854;2022-11-04T10:07:15;44.30;;;8.88;;
14599;SDS011;7386;45.586;12.854;2022-11-04T10:09:59;23.23;;;5.60;;
14599;SDS011;7386;45.586;12.854;2022-11-04T10:12:35;18.30;;;5.53;;
14599;SDS011;7386;45.586;12.854;2022-11-04T10:15:23;12.38;;;3.67;;
14599;SDS011;7386;45.586;12.854;2022-11-04T10:17:57;11.55;;;4.03;;
14599;SDS011;7386;45.586;12.854;2022-11-04T10:20:33;22.48;;;5.30;;
14599;SDS011;7386;45.586;12.854;2022-11-04T10:23:12;23.02;;;4.72;;
14599;SDS011;7386;45.586;12.854;2022-11-04T10:25:47;18.88;;;4.50;;
14599;SDS011;7386;45.586;12.854;2022-11-04T10:28:16;22.17;;;4.68;;
14599;SDS011;7386;45.586;12.854;2022-11-04T10:30:46;15.02;;;4.00;;
14599;SDS011;7386;45.586;12.854;2022-11-04T10:33:17;27.10;;;4.60;;
14599;SDS011;7386;45.586;12.854;2022-11-04T10:35:50;29.33;;;4.97;;
14599;SDS011;7386;45.586;12.854;2022-11-04T10:38:23;21.33;;;5.25;;
14599;SDS011;7386;45.586;12.854;2022-11-04T10:40:55;29.50;;;5.63;;
14599;SDS011;7386;45.586;12.854;2022-11-04T10:43:31;37.75;;;8.00;;
14599;SDS011;7386;45.586;12.854;2022-11-04T10:46:02;29.05;;;5.70;;
14599;SDS011;7386;45.586;12.854;2022-11-04T10:48:34;40.47;;;6.68;;
14599;SDS011;7386;45.586;12.854;2022-11-04T10:51:05;23.95;;;5.55;;
14599;SDS011;7386;45.586;12.854;2022-11-04T10:53:34;31.65;;;6.47;;
14599;SDS011;7386;45.586;12.854;2022-11-04T10:56:03;27.13;;;6.50;;
14599;SDS011;7386;45.586;12.854;2022-11-04T10:58:35;39.85;;;6.88;;
14599;SDS011;7386;45.586;12.854;2022-11-04T11:03:48;47.45;;;6.35;;
14599;SDS011;7386;45.586;12.854;2022-11-04T11:06:21;27.20;;;6.13;;
14599;SDS011;7386;45.586;12.854;2022-11-04T11:08:51;20.83;;;5.00;;
14599;SDS011;7386;45.586;12.854;2022-11-04T11:11:33;40.00;;;5.75;;
14599;SDS011;7386;45.586;12.854;2022-11-04T11:14:02;19.30;;;4.72;;
14599;SDS011;7386;45.586;12.854;2022-11-04T11:16:31;27.55;;;5.70;;
14599;SDS011;7386;45.586;12.854;2022-11-04T11:19:12;24.75;;;4.55;;
14599;SDS011;7386;45.586;12.854;2022-11-04T11:21:44;20.98;;;4.47;;
14599;SDS011;7386;45.586;12.854;2022-11-04T11:24:15;31.23;;;5.40;;
14599;SDS011;7386;45.586;12.854;2022-11-04T11:26:45;25.08;;;4.65;;
14599;SDS011;7386;45.586;12.854;2022-11-04T11:29:17;26.38;;;5.28;;
14599;SDS011;7386;45.586;12.854;2022-11-04T11:31:47;29.48;;;5.05;;
14599;SDS011;7386;45.586;12.854;2022-11-04T11:34:18;22.73;;;5.25;;
14599;SDS011;7386;45.586;12.854;2022-11-04T11:36:49;24.65;;;5.15;;
14599;SDS011;7386;45.586;12.854;2022-11-04T11:39:18;36.63;;;5.82;;
14599;SDS011;7386;45.586;12.854;2022-11-04T11:41:49;27.83;;;4.82;;
14599;SDS011;7386;45.586;12.854;2022-11-04T11:44:22;18.00;;;4.63;;
14599;SDS011;7386;45.586;12.854;2022-11-04T11:46:53;29.17;;;4.45;;
14599;SDS011;7386;45.586;12.854;2022-11-04T11:49:22;24.38;;;4.25;;
14599;SDS011;7386;45.586;12.854;2022-11-04T11:51:54;45.83;;;5.10;;
14599;SDS011;7386;45.586;12.854;2022-11-04T11:54:25;23.65;;;5.28;;
14599;SDS011;7386;45.586;12.854;2022-11-04T11:56:59;23.10;;;5.53;;
14599;SDS011;7386;45.586;12.854;2022-11-04T11:59:43;25.42;;;4.93;;
14599;SDS011;7386;45.586;12.854;2022-11-04T12:02:35;18.45;;;4.60;;
14599;SDS011;7386;45.586;12.854;2022-11-04T12:05:09;27.02;;;4.70;;
14599;SDS011;7386;45.586;12.854;2022-11-04T12:08:01;22.70;;;4.82;;
14599;SDS011;7386;45.586;12.854;2022-11-04T12:10:53;39.03;;;5.55;;
14599;SDS011;7386;45.586;12.854;2022-11-04T12:13:24;16.17;;;4.28;;
14599;SDS011;7386;45.586;12.854;2022-11-04T12:16:00;19.50;;;4.15;;
14599;SDS011;7386;45.586;12.854;2022-11-04T12:18:41;18.13;;;3.88;;
14599;SDS011;7386;45.586;12.854;2022-11-04T12:21:14;16.42;;;3.40;;
14599;SDS011;7386;45.586;12.854;2022-11-04T12:23:49;27.83;;;3.88;;
14599;SDS011;7386;45.586;12.854;2022-11-04T12:26:25;18.90;;;4.97;;
14599;SDS011;7386;45.586;12.854;2022-11-04T12:29:10;20.63;;;3.70;;
14599;SDS011;7386;45.586;12.854;2022-11-04T12:31:42;17.95;;;4.22;;
14599;SDS011;7386;45.586;12.854;2022-11-04T12:34:17;32.05;;;4.50;;
14599;SDS011;7386;45.586;12.854;2022-11-04T12:36:52;20.15;;;3.97;;
14599;SDS011;7386;45.586;12.854;2022-11-04T12:39:27;32.95;;;6.30;;
14599;SDS011;7386;45.586;12.854;2022-11-04T12:42:01;30.50;;;4.75;;
14599;SDS011;7386;45.586;12.854;2022-11-04T12:44:48;15.98;;;3.40;;
14599;SDS011;7386;45.586;12.854;2022-11-04T12:47:23;17.10;;;3.15;;
14599;SDS011;7386;45.586;12.854;2022-11-04T12:49:58;13.68;;;3.45;;
14599;SDS011;7386;45.586;12.854;2022-11-04T12:52:37;11.63;;;2.40;;
14599;SDS011;7386;45.586;12.854;2022-11-04T12:55:25;10.93;;;2.65;;
14599;SDS011;7386;45.586;12.854;2022-11-04T12:57:57;15.93;;;3.40;;
14599;SDS011;7386;45.586;12.854;2022-11-04T13:00:31;14.95;;;3.47;;
14599;SDS011;7386;45.586;12.854;2022-11-04T13:03:03;21.17;;;4.10;;
14599;SDS011;7386;45.586;12.854;2022-11-04T13:05:38;23.27;;;3.97;;
14599;SDS011;7386;45.586;12.854;2022-11-04T13:08:10;23.67;;;4.70;;
14599;SDS011;7386;45.586;12.854;2022-11-04T13:10:44;39.08;;;5.45;;
14599;SDS011;7386;45.586;12.854;2022-11-04T13:13:14;21.40;;;3.92;;
14599;SDS011;7386;45.586;12.854;2022-11-04T13:15:44;22.73;;;3.55;;
14599;SDS011;7386;45.586;12.854;2022-11-04T13:18:15;14.73;;;3.20;;
14599;SDS011;7386;45.586;12.854;2022-11-04T13:20:46;27.65;;;4.63;;
14599;SDS011;7386;45.586;12.854;2022-11-04T13:23:16;20.27;;;3.40;;
14599;SDS011;7386;45.586;12.854;2022-11-04T13:25:48;19.90;;;3.60;;
14599;SDS011;7386;45.586;12.854;2022-11-04T13:28:19;26.60;;;3.72;;
14599;SDS011;7386;45.586;12.854;2022-11-04T13:30:50;14.48;;;3.17;;
14599;SDS011;7386;45.586;12.854;2022-11-04T13:33:23;9.70;;;2.85;;
14599;SDS011;7386;45.586;12.854;2022-11-04T13:35:55;9.40;;;2.08;;
14599;SDS011;7386;45.586;12.854;2022-11-04T13:38:28;6.38;;;2.67;;
14599;SDS011;7386;45.586;12.854;2022-11-04T13:41:03;9.77;;;2.00;;
14599;SDS011;7386;45.586;12.854;2022-11-04T13:43:41;6.65;;;1.73;;
14599;SDS011;7386;45.586;12.854;2022-11-04T13:46:16;7.35;;;2.17;;
14599;SDS011;7386;45.586;12.854;2022-11-04T13:48:50;7.13;;;1.80;;
14599;SDS011;7386;45.586;12.854;2022-11-04T13:51:20;6.65;;;1.60;;
14599;SDS011;7386;45.586;12.854;2022-11-04T13:53:49;7.55;;;2.53;;
14599;SDS011;7386;45.586;12.854;2022-11-04T13:56:27;4.90;;;1.92;;
14599;SDS011;7386;45.586;12.854;2022-11-04T13:59:00;6.88;;;2.08;;
14599;SDS011;7386;45.586;12.854;2022-11-04T14:01:30;6.95;;;2.20;;
14599;SDS011;7386;45.586;12.854;2022-11-04T14:04:13;4.60;;;2.10;;
14599;SDS011;7386;45.586;12.854;2022-11-04T14:06:47;4.25;;;2.08;;
14599;SDS011;7386;45.586;12.854;2022-11-04T14:09:34;5.32;;;1.90;;
14599;SDS011;7386;45.586;12.854;2022-11-04T14:14:52;7.88;;;2.00;;
14599;SDS011;7386;45.586;12.854;2022-11-04T14:20:08;4.45;;;2.30;;
14599;SDS011;7386;45.586;12.854;2022-11-04T14:22:45;4.45;;;2.10;;
14599;SDS011;7386;45.586;12.854;2022-11-04T14:25:24;7.63;;;2.45;;
14599;SDS011;7386;45.586;12.854;2022-11-04T14:27:54;5.90;;;2.35;;
14599;SDS011;7386;45.586;12.854;2022-11-04T14:30:31;6.00;;;2.40;;
14599;SDS011;7386;45.586;12.854;2022-11-04T14:33:02;6.63;;;2.17;;
14599;SDS011;7386;45.586;12.854;2022-11-04T14:35:31;4.38;;;2.40;;
14599;SDS011;7386;45.586;12.854;2022-11-04T14:38:03;3.45;;;2.00;;
14599;SDS011;7386;45.586;12.854;2022-11-04T14:40:46;3.40;;;1.90;;
14599;SDS011;7386;45.586;12.854;2022-11-04T14:43:22;2.63;;;2.00;;
14599;SDS011;7386;45.586;12.854;2022-11-04T14:45:55;5.53;;;2.22;;
14599;SDS011;7386;45.586;12.854;2022-11-04T14:48:24;5.22;;;2.15;;
14599;SDS011;7386;45.586;12.854;2022-11-04T14:50:53;4.25;;;2.35;;
14599;SDS011;7386;45.586;12.854;2022-11-04T14:53:23;3.33;;;1.77;;
14599;SDS011;7386;45.586;12.854;2022-11-04T14:56:03;4.65;;;2.13;;
14599;SDS011;7386;45.586;12.854;2022-11-04T14:58:32;4.68;;;2.35;;
14599;SDS011;7386;45.586;12.854;2022-11-04T15:01:02;4.22;;;2.35;;
14599;SDS011;7386;45.586;12.854;2022-11-04T15:03:34;3.83;;;2.20;;
14599;SDS011;7386;45.586;12.854;2022-11-04T15:06:23;2.70;;;1.92;;
14599;SDS011;7386;45.586;12.854;2022-11-04T15:09:16;4.15;;;2.20;;
14599;SDS011;7386;45.586;12.854;2022-11-04T15:11:45;3.42;;;2.28;;